Arkadelphia, Alabama
Current Conditions -  °F | °C
As of 1:15 PM on Thursday 27 Nov 2014 (Local Time) from KJFX Reporting Station
Overcast Overcast  
Wind Chill: 42°   Ceiling: 3600
Heat Index: 46°   Visibility: 10mi
Dew Point: 32°   Wind: 9mph
Humidity: 57%   Direction: 320°NW
Pressure: 30.4"   Gusts: 16mph
Location:  33.9511°N, 87.0046°W
Report Text: KJFX 271915Z AUTO 32008G14KT 10SM OVC036 08/00 A3040 RMK A02 P-128
Loading
Personal Weather Stations






























Interactive Weather Map New forecast layout! Learn more

10-Day Weather Forecast

Advertisements
Track Severe Weather on mobile